San Antonio (SAT/KSAT)

Map

Information

Location
San Antonio, TX
Local Time
08:14 / 8:14 am
GMT Time
14:14 / 2:14 pm
Gates
Unassigned
No FAA reported delays
METAR KSAT 221351Z 29024G36KT 10SM CLR 14/M04 A2971 RMK AO2 PK WND 30037/1301 SLP046 T01441039 $
TAF KSAT 221351Z 2214/2318 29027G40KT P6SM SKC FM221600 30030G42KT P6SM SKC FM222100 30020G35KT P6SM SKC FM230100 32005KT P6SM SKC
  • No charts available